sensor_id;sensor_type;location;lat;lon;timestamp;temperature;humidity
63013;DHT22;62113;45.624;11.700;2023-07-13T00:01:31;26.80;60.80
63013;DHT22;62113;45.624;11.700;2023-07-13T00:03:57;26.70;61.00
63013;DHT22;62113;45.624;11.700;2023-07-13T00:06:23;26.70;61.10
63013;DHT22;62113;45.624;11.700;2023-07-13T00:08:49;26.70;61.20
63013;DHT22;62113;45.624;11.700;2023-07-13T00:11:15;26.70;61.10
63013;DHT22;62113;45.624;11.700;2023-07-13T00:13:42;26.70;61.00
63013;DHT22;62113;45.624;11.700;2023-07-13T00:16:09;26.70;60.90
63013;DHT22;62113;45.624;11.700;2023-07-13T00:18:35;26.70;61.10
63013;DHT22;62113;45.624;11.700;2023-07-13T00:21:01;26.70;61.00
63013;DHT22;62113;45.624;11.700;2023-07-13T00:23:38;26.70;61.10
63013;DHT22;62113;45.624;11.700;2023-07-13T00:26:06;26.60;61.50
63013;DHT22;62113;45.624;11.700;2023-07-13T00:28:33;26.70;61.60
63013;DHT22;62113;45.624;11.700;2023-07-13T00:30:59;26.60;61.40
63013;DHT22;62113;45.624;11.700;2023-07-13T00:33:26;26.60;61.30
63013;DHT22;62113;45.624;11.700;2023-07-13T00:35:54;26.40;62.00
63013;DHT22;62113;45.624;11.700;2023-07-13T00:38:20;26.20;61.70
63013;DHT22;62113;45.624;11.700;2023-07-13T00:40:46;26.20;62.00
63013;DHT22;62113;45.624;11.700;2023-07-13T00:43:15;26.20;62.60
63013;DHT22;62113;45.624;11.700;2023-07-13T00:48:15;26.10;62.90
63013;DHT22;62113;45.624;11.700;2023-07-13T00:50:42;25.80;63.40
63013;DHT22;62113;45.624;11.700;2023-07-13T00:53:08;25.60;63.10
63013;DHT22;62113;45.624;11.700;2023-07-13T00:55:35;25.40;63.40
63013;DHT22;62113;45.624;11.700;2023-07-13T00:58:01;25.20;64.90
63013;DHT22;62113;45.624;11.700;2023-07-13T01:00:29;24.80;65.80
63013;DHT22;62113;45.624;11.700;2023-07-13T01:02:55;24.70;65.70
63013;DHT22;62113;45.624;11.700;2023-07-13T01:05:22;24.70;66.20
63013;DHT22;62113;45.624;11.700;2023-07-13T01:07:50;24.70;66.40
63013;DHT22;62113;45.624;11.700;2023-07-13T01:10:19;24.70;67.60
63013;DHT22;62113;45.624;11.700;2023-07-13T01:12:46;24.60;66.60
63013;DHT22;62113;45.624;11.700;2023-07-13T01:18:04;24.60;67.10
63013;DHT22;62113;45.624;11.700;2023-07-13T01:20:30;24.60;67.00
63013;DHT22;62113;45.624;11.700;2023-07-13T01:22:56;24.70;67.00
63013;DHT22;62113;45.624;11.700;2023-07-13T01:25:22;24.70;66.90
63013;DHT22;62113;45.624;11.700;2023-07-13T01:27:48;24.90;66.90
63013;DHT22;62113;45.624;11.700;2023-07-13T01:30:13;25.10;66.80
63013;DHT22;62113;45.624;11.700;2023-07-13T01:32:39;25.20;66.40
63013;DHT22;62113;45.624;11.700;2023-07-13T01:35:08;25.20;66.20
63013;DHT22;62113;45.624;11.700;2023-07-13T01:37:33;25.40;65.70
63013;DHT22;62113;45.624;11.700;2023-07-13T01:40:02;25.40;65.50
63013;DHT22;62113;45.624;11.700;2023-07-13T01:42:28;25.50;65.50
63013;DHT22;62113;45.624;11.700;2023-07-13T01:44:54;25.50;65.50
63013;DHT22;62113;45.624;11.700;2023-07-13T01:47:20;25.60;65.30
63013;DHT22;62113;45.624;11.700;2023-07-13T01:49:45;25.60;65.20
63013;DHT22;62113;45.624;11.700;2023-07-13T01:52:12;25.70;65.20
63013;DHT22;62113;45.624;11.700;2023-07-13T01:54:38;25.70;65.10
63013;DHT22;62113;45.624;11.700;2023-07-13T01:57:04;25.70;65.10
63013;DHT22;62113;45.624;11.700;2023-07-13T01:59:29;25.70;64.90
63013;DHT22;62113;45.624;11.700;2023-07-13T02:01:55;25.80;65.10
63013;DHT22;62113;45.624;11.700;2023-07-13T02:04:21;25.80;64.70
63013;DHT22;62113;45.624;11.700;2023-07-13T02:06:46;25.80;64.80
63013;DHT22;62113;45.624;11.700;2023-07-13T02:09:12;25.80;64.80
63013;DHT22;62113;45.624;11.700;2023-07-13T02:11:37;25.80;64.90
63013;DHT22;62113;45.624;11.700;2023-07-13T02:14:03;25.80;64.70
63013;DHT22;62113;45.624;11.700;2023-07-13T02:16:30;25.80;64.60
63013;DHT22;62113;45.624;11.700;2023-07-13T02:18:56;25.80;64.80
63013;DHT22;62113;45.624;11.700;2023-07-13T02:21:22;25.80;64.70
63013;DHT22;62113;45.624;11.700;2023-07-13T02:23:49;25.90;64.80
63013;DHT22;62113;45.624;11.700;2023-07-13T02:26:15;25.90;64.60
63013;DHT22;62113;45.624;11.700;2023-07-13T02:28:41;25.80;64.40
63013;DHT22;62113;45.624;11.700;2023-07-13T02:31:08;25.80;64.20
63013;DHT22;62113;45.624;11.700;2023-07-13T02:33:34;25.70;64.20
63013;DHT22;62113;45.624;11.700;2023-07-13T02:36:00;25.70;64.40
63013;DHT22;62113;45.624;11.700;2023-07-13T02:38:26;25.70;64.50
63013;DHT22;62113;45.624;11.700;2023-07-13T02:40:52;25.70;64.70
63013;DHT22;62113;45.624;11.700;2023-07-13T02:43:18;25.70;64.70
63013;DHT22;62113;45.624;11.700;2023-07-13T02:45:44;25.70;64.70
63013;DHT22;62113;45.624;11.700;2023-07-13T02:48:10;25.70;64.90
63013;DHT22;62113;45.624;11.700;2023-07-13T02:50:36;25.60;65.00
63013;DHT22;62113;45.624;11.700;2023-07-13T02:53:01;25.60;65.20
63013;DHT22;62113;45.624;11.700;2023-07-13T02:55:27;25.70;65.30
63013;DHT22;62113;45.624;11.700;2023-07-13T02:57:52;25.70;65.90
63013;DHT22;62113;45.624;11.700;2023-07-13T03:00:19;25.70;65.60
63013;DHT22;62113;45.624;11.700;2023-07-13T03:02:45;25.60;65.60
63013;DHT22;62113;45.624;11.700;2023-07-13T03:05:11;25.60;65.70
63013;DHT22;62113;45.624;11.700;2023-07-13T03:07:38;25.60;65.80
63013;DHT22;62113;45.624;11.700;2023-07-13T03:10:04;25.60;65.40
63013;DHT22;62113;45.624;11.700;2023-07-13T03:12:30;25.60;65.30
63013;DHT22;62113;45.624;11.700;2023-07-13T03:14:55;25.60;65.50
63013;DHT22;62113;45.624;11.700;2023-07-13T03:17:22;25.60;65.30
63013;DHT22;62113;45.624;11.700;2023-07-13T03:19:48;25.60;65.30
63013;DHT22;62113;45.624;11.700;2023-07-13T03:22:17;25.60;65.50
63013;DHT22;62113;45.624;11.700;2023-07-13T03:24:43;25.60;65.50
63013;DHT22;62113;45.624;11.700;2023-07-13T03:27:09;25.50;65.40
63013;DHT22;62113;45.624;11.700;2023-07-13T03:29:34;25.50;65.40
63013;DHT22;62113;45.624;11.700;2023-07-13T03:32:00;25.50;65.70
63013;DHT22;62113;45.624;11.700;2023-07-13T03:34:26;25.50;65.70
63013;DHT22;62113;45.624;11.700;2023-07-13T03:36:54;25.50;65.50
63013;DHT22;62113;45.624;11.700;2023-07-13T03:39:20;25.50;65.50
63013;DHT22;62113;45.624;11.700;2023-07-13T03:41:46;25.60;65.50
63013;DHT22;62113;45.624;11.700;2023-07-13T03:44:12;25.60;65.40
63013;DHT22;62113;45.624;11.700;2023-07-13T03:46:38;25.50;65.40
63013;DHT22;62113;45.624;11.700;2023-07-13T03:49:05;25.60;65.40
63013;DHT22;62113;45.624;11.700;2023-07-13T03:51:30;25.60;65.50
63013;DHT22;62113;45.624;11.700;2023-07-13T03:53:56;25.60;65.60
63013;DHT22;62113;45.624;11.700;2023-07-13T03:56:22;25.50;66.10
63013;DHT22;62113;45.624;11.700;2023-07-13T03:58:49;25.60;65.70
63013;DHT22;62113;45.624;11.700;2023-07-13T04:01:17;25.60;65.70
63013;DHT22;62113;45.624;11.700;2023-07-13T04:03:43;25.50;65.70
63013;DHT22;62113;45.624;11.700;2023-07-13T04:06:15;25.50;65.60
63013;DHT22;62113;45.624;11.700;2023-07-13T04:08:41;25.50;65.70
63013;DHT22;62113;45.624;11.700;2023-07-13T04:11:07;25.60;65.60
63013;DHT22;62113;45.624;11.700;2023-07-13T04:13:32;25.50;65.60
63013;DHT22;62113;45.624;11.700;2023-07-13T04:15:58;25.60;65.60
63013;DHT22;62113;45.624;11.700;2023-07-13T04:18:24;25.50;65.90
63013;DHT22;62113;45.624;11.700;2023-07-13T04:23:17;25.40;65.60
63013;DHT22;62113;45.624;11.700;2023-07-13T04:25:47;25.30;65.80
63013;DHT22;62113;45.624;11.700;2023-07-13T04:28:17;25.30;65.90
63013;DHT22;62113;45.624;11.700;2023-07-13T04:30:43;25.30;66.30
63013;DHT22;62113;45.624;11.700;2023-07-13T04:33:09;25.40;66.20
63013;DHT22;62113;45.624;11.700;2023-07-13T04:35:35;25.40;66.20
63013;DHT22;62113;45.624;11.700;2023-07-13T04:38:01;25.40;66.20
63013;DHT22;62113;45.624;11.700;2023-07-13T04:40:27;25.50;66.20
63013;DHT22;62113;45.624;11.700;2023-07-13T04:42:53;25.50;66.00
63013;DHT22;62113;45.624;11.700;2023-07-13T04:45:19;25.50;66.30
63013;DHT22;62113;45.624;11.700;2023-07-13T04:47:45;25.60;66.20
63013;DHT22;62113;45.624;11.700;2023-07-13T04:50:12;25.60;67.00
63013;DHT22;62113;45.624;11.700;2023-07-13T04:52:41;25.60;66.30
63013;DHT22;62113;45.624;11.700;2023-07-13T04:55:07;25.70;66.40
63013;DHT22;62113;45.624;11.700;2023-07-13T04:57:33;25.70;66.60
63013;DHT22;62113;45.624;11.700;2023-07-13T04:59:59;25.70;66.60
63013;DHT22;62113;45.624;11.700;2023-07-13T05:02:27;25.70;66.60
63013;DHT22;62113;45.624;11.700;2023-07-13T05:04:53;25.80;66.80
63013;DHT22;62113;45.624;11.700;2023-07-13T05:07:21;25.80;66.70
63013;DHT22;62113;45.624;11.700;2023-07-13T05:09:47;25.80;66.50
63013;DHT22;62113;45.624;11.700;2023-07-13T05:12:12;25.90;66.30
63013;DHT22;62113;45.624;11.700;2023-07-13T05:14:38;26.00;66.20
63013;DHT22;62113;45.624;11.700;2023-07-13T05:17:04;26.00;66.00
63013;DHT22;62113;45.624;11.700;2023-07-13T05:19:30;26.10;65.90
63013;DHT22;62113;45.624;11.700;2023-07-13T05:21:55;26.10;65.80
63013;DHT22;62113;45.624;11.700;2023-07-13T05:24:21;26.10;65.80
63013;DHT22;62113;45.624;11.700;2023-07-13T05:26:47;26.20;65.90
63013;DHT22;62113;45.624;11.700;2023-07-13T05:29:12;26.20;66.10
63013;DHT22;62113;45.624;11.700;2023-07-13T05:31:38;26.30;66.00
63013;DHT22;62113;45.624;11.700;2023-07-13T05:34:03;26.40;66.10
63013;DHT22;62113;45.624;11.700;2023-07-13T05:36:30;26.50;66.20
63013;DHT22;62113;45.624;11.700;2023-07-13T05:38:55;26.60;66.10
63013;DHT22;62113;45.624;11.700;2023-07-13T05:41:21;26.70;65.80
63013;DHT22;62113;45.624;11.700;2023-07-13T05:43:46;26.90;65.50
63013;DHT22;62113;45.624;11.700;2023-07-13T05:46:12;26.90;65.10
63013;DHT22;62113;45.624;11.700;2023-07-13T05:48:37;27.00;64.70
63013;DHT22;62113;45.624;11.700;2023-07-13T05:51:03;27.10;64.60
63013;DHT22;62113;45.624;11.700;2023-07-13T05:53:29;27.20;64.60
63013;DHT22;62113;45.624;11.700;2023-07-13T05:55:55;27.20;64.30
63013;DHT22;62113;45.624;11.700;2023-07-13T05:58:21;27.20;64.20
63013;DHT22;62113;45.624;11.700;2023-07-13T06:00:47;27.30;64.00
63013;DHT22;62113;45.624;11.700;2023-07-13T06:03:13;27.30;64.00
63013;DHT22;62113;45.624;11.700;2023-07-13T06:05:38;27.30;63.90
63013;DHT22;62113;45.624;11.700;2023-07-13T06:08:06;27.30;63.90
63013;DHT22;62113;45.624;11.700;2023-07-13T06:10:33;27.30;63.90
63013;DHT22;62113;45.624;11.700;2023-07-13T06:12:59;27.30;64.00
63013;DHT22;62113;45.624;11.700;2023-07-13T06:15:25;27.30;64.30
63013;DHT22;62113;45.624;11.700;2023-07-13T06:17:50;27.30;64.20
63013;DHT22;62113;45.624;11.700;2023-07-13T06:20:16;27.30;64.10
63013;DHT22;62113;45.624;11.700;2023-07-13T06:22:41;27.30;63.90
63013;DHT22;62113;45.624;11.700;2023-07-13T06:25:07;27.30;63.50
63013;DHT22;62113;45.624;11.700;2023-07-13T06:27:33;27.30;63.30
63013;DHT22;62113;45.624;11.700;2023-07-13T06:29:59;27.20;63.00
63013;DHT22;62113;45.624;11.700;2023-07-13T06:32:24;27.20;63.30
63013;DHT22;62113;45.624;11.700;2023-07-13T06:34:51;27.20;63.50
63013;DHT22;62113;45.624;11.700;2023-07-13T06:37:17;27.30;63.60
63013;DHT22;62113;45.624;11.700;2023-07-13T06:39:43;27.30;63.60
63013;DHT22;62113;45.624;11.700;2023-07-13T06:42:09;27.40;63.60
63013;DHT22;62113;45.624;11.700;2023-07-13T06:44:35;27.50;63.50
63013;DHT22;62113;45.624;11.700;2023-07-13T06:47:00;27.50;63.40
63013;DHT22;62113;45.624;11.700;2023-07-13T06:49:26;27.50;63.80
63013;DHT22;62113;45.624;11.700;2023-07-13T06:51:51;27.60;63.60
63013;DHT22;62113;45.624;11.700;2023-07-13T06:54:17;27.60;63.50
63013;DHT22;62113;45.624;11.700;2023-07-13T06:56:43;27.60;63.70
63013;DHT22;62113;45.624;11.700;2023-07-13T06:59:08;27.50;63.60
63013;DHT22;62113;45.624;11.700;2023-07-13T07:01:34;27.50;63.70
63013;DHT22;62113;45.624;11.700;2023-07-13T07:04:00;27.50;63.70
63013;DHT22;62113;45.624;11.700;2023-07-13T07:06:26;27.50;63.90
63013;DHT22;62113;45.624;11.700;2023-07-13T07:08:52;27.50;63.80
63013;DHT22;62113;45.624;11.700;2023-07-13T07:11:20;27.50;63.70
63013;DHT22;62113;45.624;11.700;2023-07-13T07:13:48;27.40;63.80
63013;DHT22;62113;45.624;11.700;2023-07-13T07:16:13;27.50;64.00
63013;DHT22;62113;45.624;11.700;2023-07-13T07:18:39;27.50;64.20
63013;DHT22;62113;45.624;11.700;2023-07-13T07:21:05;27.50;64.20
63013;DHT22;62113;45.624;11.700;2023-07-13T07:23:31;27.60;64.30
63013;DHT22;62113;45.624;11.700;2023-07-13T07:25:56;27.60;64.30
63013;DHT22;62113;45.624;11.700;2023-07-13T07:28:22;27.60;64.20
63013;DHT22;62113;45.624;11.700;2023-07-13T07:30:48;27.70;64.10
63013;DHT22;62113;45.624;11.700;2023-07-13T07:33:15;27.70;63.90
63013;DHT22;62113;45.624;11.700;2023-07-13T07:35:42;27.70;63.70
63013;DHT22;62113;45.624;11.700;2023-07-13T07:38:08;27.70;63.40
63013;DHT22;62113;45.624;11.700;2023-07-13T07:40:37;27.70;63.10
63013;DHT22;62113;45.624;11.700;2023-07-13T07:43:02;27.70;63.10
63013;DHT22;62113;45.624;11.700;2023-07-13T07:45:28;27.70;63.00
63013;DHT22;62113;45.624;11.700;2023-07-13T07:47:54;27.70;63.10
63013;DHT22;62113;45.624;11.700;2023-07-13T07:50:24;27.80;63.00
63013;DHT22;62113;45.624;11.700;2023-07-13T07:52:50;27.80;63.10
63013;DHT22;62113;45.624;11.700;2023-07-13T07:55:16;27.80;63.10
63013;DHT22;62113;45.624;11.700;2023-07-13T07:57:42;27.80;63.20
63013;DHT22;62113;45.624;11.700;2023-07-13T08:00:08;27.80;63.20
63013;DHT22;62113;45.624;11.700;2023-07-13T08:02:33;27.80;63.20
63013;DHT22;62113;45.624;11.700;2023-07-13T08:04:59;27.80;63.20
63013;DHT22;62113;45.624;11.700;2023-07-13T08:07:24;27.80;63.20
63013;DHT22;62113;45.624;11.700;2023-07-13T08:09:54;27.80;63.30
63013;DHT22;62113;45.624;11.700;2023-07-13T08:12:19;27.80;63.20
63013;DHT22;62113;45.624;11.700;2023-07-13T08:14:49;27.80;63.20
63013;DHT22;62113;45.624;11.700;2023-07-13T08:17:21;27.90;63.20
63013;DHT22;62113;45.624;11.700;2023-07-13T08:19:47;27.90;63.30
63013;DHT22;62113;45.624;11.700;2023-07-13T08:22:13;27.90;63.10
63013;DHT22;62113;45.624;11.700;2023-07-13T08:24:38;27.90;63.00
63013;DHT22;62113;45.624;11.700;2023-07-13T08:27:04;28.00;62.80
63013;DHT22;62113;45.624;11.700;2023-07-13T08:29:30;28.00;62.50
63013;DHT22;62113;45.624;11.700;2023-07-13T08:32:00;28.00;62.30
63013;DHT22;62113;45.624;11.700;2023-07-13T08:34:26;28.10;62.30
63013;DHT22;62113;45.624;11.700;2023-07-13T08:36:51;28.10;62.30
63013;DHT22;62113;45.624;11.700;2023-07-13T08:39:17;28.10;62.50
63013;DHT22;62113;45.624;11.700;2023-07-13T08:41:46;28.00;62.50
63013;DHT22;62113;45.624;11.700;2023-07-13T08:44:27;28.00;62.40
63013;DHT22;62113;45.624;11.700;2023-07-13T08:46:58;28.00;62.40
63013;DHT22;62113;45.624;11.700;2023-07-13T08:49:25;28.00;62.40
63013;DHT22;62113;45.624;11.700;2023-07-13T08:52:02;28.00;62.40
63013;DHT22;62113;45.624;11.700;2023-07-13T08:54:37;28.00;62.50
63013;DHT22;62113;45.624;11.700;2023-07-13T08:57:15;28.00;62.50
63013;DHT22;62113;45.624;11.700;2023-07-13T08:59:42;28.00;62.70
63013;DHT22;62113;45.624;11.700;2023-07-13T09:02:23;27.90;62.70
63013;DHT22;62113;45.624;11.700;2023-07-13T09:04:58;27.90;62.60
63013;DHT22;62113;45.624;11.700;2023-07-13T09:10:26;27.90;62.60
63013;DHT22;62113;45.624;11.700;2023-07-13T09:15:46;27.80;62.50
63013;DHT22;62113;45.624;11.700;2023-07-13T09:20:57;27.60;63.10
63013;DHT22;62113;45.624;11.700;2023-07-13T09:23:27;27.40;63.20
63013;DHT22;62113;45.624;11.700;2023-07-13T09:28:43;27.30;63.30
63013;DHT22;62113;45.624;11.700;2023-07-13T09:31:17;27.30;63.30
63013;DHT22;62113;45.624;11.700;2023-07-13T09:33:44;27.30;63.30
63013;DHT22;62113;45.624;11.700;2023-07-13T09:38:45;27.20;63.20
63013;DHT22;62113;45.624;11.700;2023-07-13T09:44:14;27.20;63.30
63013;DHT22;62113;45.624;11.700;2023-07-13T09:47:00;27.10;63.40
63013;DHT22;62113;45.624;11.700;2023-07-13T09:49:29;27.20;63.60
63013;DHT22;62113;45.624;11.700;2023-07-13T09:52:04;27.20;63.60
63013;DHT22;62113;45.624;11.700;2023-07-13T09:54:34;27.20;63.90
63013;DHT22;62113;45.624;11.700;2023-07-13T09:57:01;27.30;64.20
63013;DHT22;62113;45.624;11.700;2023-07-13T09:59:32;27.30;64.40
63013;DHT22;62113;45.624;11.700;2023-07-13T10:01:58;27.30;64.50
63013;DHT22;62113;45.624;11.700;2023-07-13T10:04:34;27.30;64.70
63013;DHT22;62113;45.624;11.700;2023-07-13T10:07:08;27.30;64.90
63013;DHT22;62113;45.624;11.700;2023-07-13T10:09:33;27.30;65.10
63013;DHT22;62113;45.624;11.700;2023-07-13T10:11:59;27.30;65.10
63013;DHT22;62113;45.624;11.700;2023-07-13T10:14:25;27.30;65.30
63013;DHT22;62113;45.624;11.700;2023-07-13T10:16:55;27.40;65.60
63013;DHT22;62113;45.624;11.700;2023-07-13T10:19:25;27.40;66.00
63013;DHT22;62113;45.624;11.700;2023-07-13T10:21:57;27.50;65.50
63013;DHT22;62113;45.624;11.700;2023-07-13T10:24:32;27.60;65.30
63013;DHT22;62113;45.624;11.700;2023-07-13T10:27:10;27.70;65.40
63013;DHT22;62113;45.624;11.700;2023-07-13T10:29:42;27.90;65.60
63013;DHT22;62113;45.624;11.700;2023-07-13T10:32:12;28.20;65.40
63013;DHT22;62113;45.624;11.700;2023-07-13T10:34:40;28.50;65.20
63013;DHT22;62113;45.624;11.700;2023-07-13T10:37:15;28.70;64.80
63013;DHT22;62113;45.624;11.700;2023-07-13T10:39:43;29.00;64.50
63013;DHT22;62113;45.624;11.700;2023-07-13T10:42:13;29.30;64.40
63013;DHT22;62113;45.624;11.700;2023-07-13T10:44:40;29.60;63.50
63013;DHT22;62113;45.624;11.700;2023-07-13T10:47:08;29.70;63.00
63013;DHT22;62113;45.624;11.700;2023-07-13T10:49:39;29.90;62.60
63013;DHT22;62113;45.624;11.700;2023-07-13T10:52:20;30.10;62.30
63013;DHT22;62113;45.624;11.700;2023-07-13T10:54:51;30.20;61.90
63013;DHT22;62113;45.624;11.700;2023-07-13T10:57:20;30.30;60.00
63013;DHT22;62113;45.624;11.700;2023-07-13T10:59:48;30.30;59.60
63013;DHT22;62113;45.624;11.700;2023-07-13T11:02:25;30.30;58.40
63013;DHT22;62113;45.624;11.700;2023-07-13T11:04:53;30.30;57.30
63013;DHT22;62113;45.624;11.700;2023-07-13T11:09:58;30.30;57.00
63013;DHT22;62113;45.624;11.700;2023-07-13T11:22:46;30.60;54.80
63013;DHT22;62113;45.624;11.700;2023-07-13T11:25:27;30.60;54.90
63013;DHT22;62113;45.624;11.700;2023-07-13T11:33:31;30.40;54.80
63013;DHT22;62113;45.624;11.700;2023-07-13T11:36:16;30.50;54.50
63013;DHT22;62113;45.624;11.700;2023-07-13T11:39:03;30.50;53.10
63013;DHT22;62113;45.624;11.700;2023-07-13T11:41:37;30.60;53.30
63013;DHT22;62113;45.624;11.700;2023-07-13T11:46:45;30.70;53.10
63013;DHT22;62113;45.624;11.700;2023-07-13T11:49:16;30.80;53.20
63013;DHT22;62113;45.624;11.700;2023-07-13T11:51:42;30.90;53.40
63013;DHT22;62113;45.624;11.700;2023-07-13T11:54:43;31.00;49.70
63013;DHT22;62113;45.624;11.700;2023-07-13T11:57:32;31.00;49.90
63013;DHT22;62113;45.624;11.700;2023-07-13T12:00:03;31.00;51.20
63013;DHT22;62113;45.624;11.700;2023-07-13T12:02:37;31.00;51.00
63013;DHT22;62113;45.624;11.700;2023-07-13T12:05:05;30.90;51.10
63013;DHT22;62113;45.624;11.700;2023-07-13T12:07:33;30.90;51.30
63013;DHT22;62113;45.624;11.700;2023-07-13T12:10:19;30.90;51.60
63013;DHT22;62113;45.624;11.700;2023-07-13T12:12:57;31.00;53.00
63013;DHT22;62113;45.624;11.700;2023-07-13T12:15:28;31.20;54.70
63013;DHT22;62113;45.624;11.700;2023-07-13T12:17:56;31.30;53.80
63013;DHT22;62113;45.624;11.700;2023-07-13T12:20:30;31.40;53.40
63013;DHT22;62113;45.624;11.700;2023-07-13T12:22:59;31.50;52.20
63013;DHT22;62113;45.624;11.700;2023-07-13T12:25:26;31.50;51.40
63013;DHT22;62113;45.624;11.700;2023-07-13T12:27:52;31.50;51.30
63013;DHT22;62113;45.624;11.700;2023-07-13T12:33:05;31.60;51.30
63013;DHT22;62113;45.624;11.700;2023-07-13T12:35:48;31.60;50.90
63013;DHT22;62113;45.624;11.700;2023-07-13T12:38:16;31.60;51.30
63013;DHT22;62113;45.624;11.700;2023-07-13T12:40:42;31.60;51.40
63013;DHT22;62113;45.624;11.700;2023-07-13T12:43:14;31.50;51.50
63013;DHT22;62113;45.624;11.700;2023-07-13T12:46:04;31.50;51.30
63013;DHT22;62113;45.624;11.700;2023-07-13T12:48:38;31.60;50.70
63013;DHT22;62113;45.624;11.700;2023-07-13T12:51:04;31.60;50.50
63013;DHT22;62113;45.624;11.700;2023-07-13T12:53:41;31.50;50.60
63013;DHT22;62113;45.624;11.700;2023-07-13T12:56:15;31.50;50.90
63013;DHT22;62113;45.624;11.700;2023-07-13T12:58:42;31.40;50.70
63013;DHT22;62113;45.624;11.700;2023-07-13T13:01:10;31.40;50.90
63013;DHT22;62113;45.624;11.700;2023-07-13T13:03:49;31.40;51.20
63013;DHT22;62113;45.624;11.700;2023-07-13T13:08:44;31.50;52.00
63013;DHT22;62113;45.624;11.700;2023-07-13T13:11:10;31.50;52.30
63013;DHT22;62113;45.624;11.700;2023-07-13T13:13:35;31.60;52.30
63013;DHT22;62113;45.624;11.700;2023-07-13T13:18:55;31.70;51.90
63013;DHT22;62113;45.624;11.700;2023-07-13T13:21:23;31.70;51.90
63013;DHT22;62113;45.624;11.700;2023-07-13T13:23:49;31.80;51.90
63013;DHT22;62113;45.624;11.700;2023-07-13T13:26:16;31.80;52.00
63013;DHT22;62113;45.624;11.700;2023-07-13T13:28:42;31.80;52.00
63013;DHT22;62113;45.624;11.700;2023-07-13T13:31:11;31.80;49.40
63013;DHT22;62113;45.624;11.700;2023-07-13T13:33:42;31.70;50.10
63013;DHT22;62113;45.624;11.700;2023-07-13T13:36:21;31.70;50.40
63013;DHT22;62113;45.624;11.700;2023-07-13T13:38:49;31.70;51.00
63013;DHT22;62113;45.624;11.700;2023-07-13T13:41:15;31.70;51.20
63013;DHT22;62113;45.624;11.700;2023-07-13T13:43:41;31.70;51.40
63013;DHT22;62113;45.624;11.700;2023-07-13T13:46:16;31.70;50.50
63013;DHT22;62113;45.624;11.700;2023-07-13T13:48:43;31.60;49.40
63013;DHT22;62113;45.624;11.700;2023-07-13T13:51:18;31.40;48.90
63013;DHT22;62113;45.624;11.700;2023-07-13T13:53:45;31.30;49.80
63013;DHT22;62113;45.624;11.700;2023-07-13T13:56:12;31.20;49.00
63013;DHT22;62113;45.624;11.700;2023-07-13T13:58:38;31.20;49.80
63013;DHT22;62113;45.624;11.700;2023-07-13T14:01:04;31.10;50.30
63013;DHT22;62113;45.624;11.700;2023-07-13T14:03:33;31.10;50.40
63013;DHT22;62113;45.624;11.700;2023-07-13T14:05:59;31.20;50.70
63013;DHT22;62113;45.624;11.700;2023-07-13T14:08:25;31.20;50.80
63013;DHT22;62113;45.624;11.700;2023-07-13T14:10:53;31.20;50.50
63013;DHT22;62113;45.624;11.700;2023-07-13T14:13:33;31.20;50.60
63013;DHT22;62113;45.624;11.700;2023-07-13T14:16:01;31.20;51.20
63013;DHT22;62113;45.624;11.700;2023-07-13T14:18:27;31.30;51.70
63013;DHT22;62113;45.624;11.700;2023-07-13T14:20:53;31.30;52.10
63013;DHT22;62113;45.624;11.700;2023-07-13T14:23:18;31.30;52.30
63013;DHT22;62113;45.624;11.700;2023-07-13T14:25:45;31.40;52.40
63013;DHT22;62113;45.624;11.700;2023-07-13T14:28:25;31.30;52.50
63013;DHT22;62113;45.624;11.700;2023-07-13T14:30:51;31.30;52.80
63013;DHT22;62113;45.624;11.700;2023-07-13T14:33:17;31.30;52.70
63013;DHT22;62113;45.624;11.700;2023-07-13T14:35:43;31.20;52.90
63013;DHT22;62113;45.624;11.700;2023-07-13T14:38:15;31.20;52.90
63013;DHT22;62113;45.624;11.700;2023-07-13T14:40:42;31.20;53.00
63013;DHT22;62113;45.624;11.700;2023-07-13T14:43:09;31.20;53.20
63013;DHT22;62113;45.624;11.700;2023-07-13T14:45:36;31.10;53.30
63013;DHT22;62113;45.624;11.700;2023-07-13T14:48:14;31.10;53.40
63013;DHT22;62113;45.624;11.700;2023-07-13T14:50:40;31.00;53.10
63013;DHT22;62113;45.624;11.700;2023-07-13T14:53:10;31.00;52.60
63013;DHT22;62113;45.624;11.700;2023-07-13T14:55:36;30.90;52.20
63013;DHT22;62113;45.624;11.700;2023-07-13T14:58:02;30.80;51.90
63013;DHT22;62113;45.624;11.700;2023-07-13T15:00:28;30.70;51.60
63013;DHT22;62113;45.624;11.700;2023-07-13T15:02:56;30.70;51.20
63013;DHT22;62113;45.624;11.700;2023-07-13T15:05:28;30.60;51.20
63013;DHT22;62113;45.624;11.700;2023-07-13T15:07:59;30.50;50.80
63013;DHT22;62113;45.624;11.700;2023-07-13T15:10:28;30.40;50.90
63013;DHT22;62113;45.624;11.700;2023-07-13T15:13:14;30.30;50.80
63013;DHT22;62113;45.624;11.700;2023-07-13T15:15:41;30.20;50.90
63013;DHT22;62113;45.624;11.700;2023-07-13T15:18:11;30.10;50.90
63013;DHT22;62113;45.624;11.700;2023-07-13T15:20:37;30.00;50.90
63013;DHT22;62113;45.624;11.700;2023-07-13T15:23:04;29.80;50.90
63013;DHT22;62113;45.624;11.700;2023-07-13T15:25:32;29.70;51.20
63013;DHT22;62113;45.624;11.700;2023-07-13T15:28:01;29.60;51.50
63013;DHT22;62113;45.624;11.700;2023-07-13T15:30:30;29.50;51.70
63013;DHT22;62113;45.624;11.700;2023-07-13T15:33:00;29.40;52.30
63013;DHT22;62113;45.624;11.700;2023-07-13T15:35:28;29.20;53.30
63013;DHT22;62113;45.624;11.700;2023-07-13T15:37:53;29.20;53.80
63013;DHT22;62113;45.624;11.700;2023-07-13T15:40:20;29.00;53.80
63013;DHT22;62113;45.624;11.700;2023-07-13T15:42:48;29.00;53.80
63013;DHT22;62113;45.624;11.700;2023-07-13T15:45:23;28.80;53.80
63013;DHT22;62113;45.624;11.700;2023-07-13T15:47:50;28.70;54.00
63013;DHT22;62113;45.624;11.700;2023-07-13T15:50:17;28.70;54.40
63013;DHT22;62113;45.624;11.700;2023-07-13T15:52:45;28.60;55.10
63013;DHT22;62113;45.624;11.700;2023-07-13T15:55:14;28.40;55.60
63013;DHT22;62113;45.624;11.700;2023-07-13T15:57:46;28.30;56.30
63013;DHT22;62113;45.624;11.700;2023-07-13T16:02:42;28.30;57.30
63013;DHT22;62113;45.624;11.700;2023-07-13T16:05:08;28.30;57.90
63013;DHT22;62113;45.624;11.700;2023-07-13T16:07:33;28.30;57.90
63013;DHT22;62113;45.624;11.700;2023-07-13T16:09:59;28.40;58.30
63013;DHT22;62113;45.624;11.700;2023-07-13T16:12:26;28.40;58.40
63013;DHT22;62113;45.624;11.700;2023-07-13T16:14:52;28.60;58.50
63013;DHT22;62113;45.624;11.700;2023-07-13T16:17:18;28.70;58.50